Time;durP1;ratioP1;P1;durP2;ratioP2;P2;SDS_P1;SDS_P2;PMS_P1;PMS_P2;Temp;Humidity;BMP_temperature;BMP_pressure;BME280_temperature;BME280_humidity;BME280_pressure;Samples;Min_cycle;Max_cycle;Signal;HPM_P1;HPM_P2
2021/11/09 00:02:11;;;;;;;2.25;1.80;;;;;;;26.29;31.45;97372.44;5044486;28;20036;-33
2021/11/09 00:04:40;;;;;;;3.92;2.13;;;;;;;26.28;31.38;97373.34;5043795;28;20095;-32
2021/11/09 00:07:35;;;;;;;2.85;1.90;;;;;;;26.28;31.52;97365.47;5046379;28;20036;-31
2021/11/09 00:10:07;;;;;;;3.60;2.30;;;;;;;26.27;31.29;97371.63;5047204;28;20070;-31
2021/11/09 00:12:39;;;;;;;4.53;2.25;;;;;;;26.27;31.35;97374.28;5047892;28;20032;-33
2021/11/09 00:15:06;;;;;;;9.68;2.10;;;;;;;26.27;31.47;97378.69;5051264;28;20021;-31
2021/11/09 00:17:32;;;;;;;3.63;1.70;;;;;;;26.26;31.48;97377.81;5051404;28;20028;-33
2021/11/09 00:19:58;;;;;;;6.10;2.05;;;;;;;26.25;31.39;97357.72;5047528;28;20047;-33
2021/11/09 00:22:23;;;;;;;3.30;2.05;;;;;;;26.25;31.45;97360.34;5030364;28;20021;-31
2021/11/09 00:24:49;;;;;;;3.70;1.92;;;;;;;26.24;31.42;97361.25;5044076;28;20043;-31
2021/11/09 00:27:15;;;;;;;3.55;1.95;;;;;;;26.24;31.26;97363.91;5050557;28;20056;-30
2021/11/09 00:29:40;;;;;;;3.28;1.95;;;;;;;26.24;31.33;97358.63;5048713;28;20609;-32
2021/11/09 00:32:07;;;;;;;2.80;1.70;;;;;;;26.24;31.38;97369.16;5044668;28;20146;-32
2021/11/09 00:34:32;;;;;;;3.00;1.70;;;;;;;26.24;31.38;97374.41;5044749;28;20032;-32
2021/11/09 00:36:58;;;;;;;5.32;2.05;;;;;;;26.24;31.38;97379.66;5049743;28;20067;-32
2021/11/09 00:39:24;;;;;;;3.38;1.75;;;;;;;26.21;31.33;97382.41;5033757;28;20077;-33
2021/11/09 00:41:49;;;;;;;1.90;1.60;;;;;;;26.22;31.41;97389.38;5045087;28;20035;-34
2021/11/09 00:44:15;;;;;;;2.22;1.70;;;;;;;26.22;31.44;97381.47;5018441;28;20052;-32
2021/11/09 00:46:40;;;;;;;3.08;1.90;;;;;;;26.22;31.39;97384.09;5050217;28;20689;-28
2021/11/09 00:49:06;;;;;;;3.30;2.05;;;;;;;26.21;31.35;97379.78;5042964;28;20021;-31
2021/11/09 00:51:31;;;;;;;2.22;1.73;;;;;;;26.21;31.38;97379.78;5043121;28;20032;-31
2021/11/09 00:53:56;;;;;;;3.42;1.65;;;;;;;26.20;31.40;97385.97;5046631;28;20025;-33
2021/11/09 00:56:22;;;;;;;4.53;1.75;;;;;;;26.20;31.23;97383.34;5051865;28;20598;-32
2021/11/09 00:58:47;;;;;;;2.65;1.60;;;;;;;26.19;31.41;97385.09;5049921;28;20033;-31
2021/11/09 01:01:13;;;;;;;2.70;1.90;;;;;;;26.19;31.42;97382.47;5059582;28;20051;-29
2021/11/09 01:03:38;;;;;;;2.95;1.83;;;;;;;26.19;31.27;97381.63;5050008;28;20025;-32
2021/11/09 01:06:03;;;;;;;4.03;1.80;;;;;;;26.18;31.36;97386.03;5050005;28;20052;-30
2021/11/09 01:08:30;;;;;;;3.97;2.25;;;;;;;26.19;31.25;97389.50;5048917;28;20025;-32
2021/11/09 01:10:55;;;;;;;2.60;1.73;;;;;;;26.18;31.36;97393.06;5048855;28;20131;-30
2021/11/09 01:13:22;;;;;;;3.25;1.92;;;;;;;26.17;31.24;97392.22;5026718;28;20146;-31
2021/11/09 01:15:51;;;;;;;3.08;1.70;;;;;;;26.17;31.30;97392.22;5041953;28;20020;-31
2021/11/09 01:18:22;;;;;;;2.17;1.52;;;;;;;26.17;31.36;97391.34;5045740;28;20052;-30
2021/11/09 01:20:48;;;;;;;3.00;1.90;;;;;;;26.17;31.43;97391.34;5044649;28;20025;-33
2021/11/09 01:23:13;;;;;;;3.38;1.60;;;;;;;26.16;31.40;97389.66;5046127;28;20060;-31
2021/11/09 01:25:39;;;;;;;4.47;1.63;;;;;;;26.15;31.38;97391.41;5047465;28;20017;-31
2021/11/09 01:28:05;;;;;;;2.28;1.58;;;;;;;26.15;31.30;97398.44;5046196;28;20028;-30
2021/11/09 01:30:30;;;;;;;2.55;1.90;;;;;;;26.15;31.28;97401.91;5043565;28;20199;-31
2021/11/09 01:32:56;;;;;;;2.83;1.90;;;;;;;26.15;31.43;97401.06;5048351;28;20442;-32
2021/11/09 01:35:21;;;;;;;2.65;1.70;;;;;;;26.14;31.40;97399.34;5030521;28;20232;-32
2021/11/09 01:37:47;;;;;;;2.78;1.88;;;;;;;26.14;31.25;97394.09;5043078;28;20309;-32
2021/11/09 01:40:13;;;;;;;3.28;1.70;;;;;;;26.14;31.32;97399.34;5046036;28;20100;-30
2021/11/09 01:42:38;;;;;;;2.42;1.42;;;;;;;26.13;31.25;97405.53;5047498;28;20571;-32
2021/11/09 01:45:05;;;;;;;2.22;1.70;;;;;;;26.13;31.28;97395.03;5041942;28;23642;-31
2021/11/09 01:47:30;;;;;;;1.70;1.52;;;;;;;26.12;31.42;97388.91;5036825;28;20179;-33
2021/11/09 01:49:56;;;;;;;2.67;1.45;;;;;;;26.13;31.36;97388.03;5037773;28;20032;-35
2021/11/09 01:52:21;;;;;;;2.08;1.50;;;;;;;26.13;31.41;97389.78;5040912;28;20021;-31
2021/11/09 01:54:47;;;;;;;2.42;1.45;;;;;;;26.13;31.34;97392.41;5047330;28;20686;-35
2021/11/09 01:57:12;;;;;;;2.20;1.60;;;;;;;26.12;31.22;97393.34;5042941;28;20033;-33
2021/11/09 01:59:38;;;;;;;3.17;1.50;;;;;;;26.11;31.21;97389.84;5046511;28;20028;-32
2021/11/09 02:02:03;;;;;;;1.65;1.52;;;;;;;26.12;31.42;97394.16;5040021;28;20028;-32
2021/11/09 02:04:29;;;;;;;2.53;1.60;;;;;;;26.10;31.36;97388.97;5035525;28;20033;-31
2021/11/09 02:06:54;;;;;;;2.92;1.50;;;;;;;26.10;31.26;97383.72;5036205;28;20036;-31
2021/11/09 02:09:20;;;;;;;2.65;1.60;;;;;;;26.12;31.40;97393.34;5046390;28;20025;-31
2021/11/09 02:11:47;;;;;;;2.30;1.70;;;;;;;26.10;31.31;97398.66;5050354;28;20564;-31
2021/11/09 02:14:13;;;;;;;2.00;1.33;;;;;;;26.08;31.29;97401.34;5029512;28;20013;-30
2021/11/09 02:16:39;;;;;;;1.88;1.40;;;;;;;26.08;31.38;97398.72;5046285;28;20313;-31
2021/11/09 02:19:05;;;;;;;2.58;1.55;;;;;;;26.09;31.24;97399.59;5048015;28;20036;-32
2021/11/09 02:21:30;;;;;;;2.53;1.60;;;;;;;26.09;31.32;97397.78;5043570;28;20575;-32
2021/11/09 02:23:56;;;;;;;2.65;1.63;;;;;;;26.07;31.26;97397.03;5042146;28;20028;-31
2021/11/09 02:26:22;;;;;;;2.17;1.45;;;;;;;26.08;31.32;97406.59;5044569;28;20509;-42
2021/11/09 02:28:49;;;;;;;2.10;1.38;;;;;;;26.07;31.33;97399.66;5041187;28;20557;-32
2021/11/09 02:31:14;;;;;;;2.60;1.42;;;;;;;26.07;31.36;97404.03;5048147;28;20051;-31
2021/11/09 02:33:40;;;;;;;2.25;1.52;;;;;;;26.07;31.22;97415.41;5024776;28;20444;-31
2021/11/09 02:36:05;;;;;;;2.05;1.30;;;;;;;26.07;31.27;97418.03;5048866;28;20041;-30
2021/11/09 02:38:31;;;;;;;3.10;1.45;;;;;;;26.06;31.20;97416.34;5044575;28;20033;-33
2021/11/09 02:40:57;;;;;;;2.25;1.40;;;;;;;26.06;31.37;97420.72;5028822;28;20159;-34
2021/11/09 02:43:23;;;;;;;2.58;1.40;;;;;;;26.05;31.28;97417.22;5045372;28;20101;-33
2021/11/09 02:48:35;;;;;;;1.58;1.40;;;;;;;26.05;31.36;97426.91;5049028;28;20033;-33
2021/11/09 02:51:37;;;;;;;2.13;1.25;;;;;;;26.03;31.27;97429.59;5037307;28;20032;-31
2021/11/09 02:59:37;;;;;;;1.90;1.50;;;;;;;26.03;31.41;97419.09;5046239;28;20044;-31
2021/11/09 03:04:57;;;;;;;2.60;1.60;;;;;;;26.01;31.28;97415.66;5047220;28;20035;-32
2021/11/09 03:07:29;;;;;;;1.90;1.38;;;;;;;26.02;31.40;97414.75;5045119;28;20029;-31
2021/11/09 03:10:03;;;;;;;1.92;1.40;;;;;;;26.01;31.38;97415.66;5044069;28;20618;-32
2021/11/09 03:12:32;;;;;;;2.58;1.60;;;;;;;26.01;31.25;97420.06;5044377;28;20033;-32
2021/11/09 03:14:58;;;;;;;2.40;1.58;;;;;;;25.95;31.36;97413.31;5046555;28;20029;-33
2021/11/09 03:17:24;;;;;;;1.70;1.25;;;;;;;26.00;31.34;97413.13;5042347;28;20043;-31
2021/11/09 03:19:59;;;;;;;1.85;1.20;;;;;;;25.99;31.39;97420.13;5045907;28;20035;-32
2021/11/09 03:47:10;;;;;;;3.53;1.20;;;;;;;25.94;31.39;97398.50;5046888;28;20111;-32
2021/11/09 03:49:37;;;;;;;2.15;1.30;;;;;;;25.93;31.36;97396.78;5047872;28;20033;-32
2021/11/09 03:52:10;;;;;;;1.90;1.42;;;;;;;25.94;31.39;97403.75;5022676;28;20526;-31
2021/11/09 03:54:36;;;;;;;1.85;1.38;;;;;;;25.93;31.43;97407.28;5044094;28;20025;-32
2021/11/09 03:57:08;;;;;;;2.08;1.45;;;;;;;25.93;31.34;97407.28;5045260;28;20792;-32
2021/11/09 04:05:06;;;;;;;1.58;1.10;;;;;;;25.93;31.42;97417.78;5043042;28;20523;-31
2021/11/09 04:07:46;;;;;;;1.90;1.50;;;;;;;25.92;31.36;97410.81;5046791;28;20688;-31
2021/11/09 04:10:24;;;;;;;1.45;1.13;;;;;;;25.92;31.26;97410.81;5030579;28;20040;-32
2021/11/09 05:02:53;;;;;;;1.40;1.20;;;;;;;25.83;31.46;97402.41;5048798;28;20040;-32
2021/11/09 05:10:48;;;;;;;2.78;1.27;;;;;;;25.83;31.34;97409.47;5049256;28;20090;-32
2021/11/09 05:13:14;;;;;;;1.83;1.20;;;;;;;25.81;31.57;97414.78;5033019;28;20024;-32
2021/11/09 05:15:39;;;;;;;1.60;1.20;;;;;;;25.80;31.43;97410.44;5049255;28;20082;-30
2021/11/09 05:18:05;;;;;;;1.83;1.10;;;;;;;25.81;31.47;97417.41;5048170;28;20079;-30
2021/11/09 05:20:31;;;;;;;1.38;1.10;;;;;;;25.81;31.32;97412.16;5048190;28;20032;-32
2021/11/09 05:22:57;;;;;;;2.08;1.38;;;;;;;25.79;31.40;97414.00;5048463;28;22021;-33
2021/11/09 05:25:22;;;;;;;1.20;0.80;;;;;;;25.80;31.40;97413.06;5045847;28;20015;-33
2021/11/09 05:27:48;;;;;;;1.90;1.30;;;;;;;25.81;31.54;97425.28;5041481;28;20029;-33
2021/11/09 05:30:15;;;;;;;1.80;1.15;;;;;;;25.79;31.26;97427.13;5051104;28;20017;-32
2021/11/09 05:32:41;;;;;;;1.45;1.08;;;;;;;25.79;31.38;97414.00;5045416;28;20021;-31
2021/11/09 05:35:07;;;;;;;1.15;0.90;;;;;;;25.80;31.39;97423.56;5042803;28;20126;-32
2021/11/09 05:37:39;;;;;;;2.30;1.23;;;;;;;25.79;31.59;97427.13;5047664;28;20036;-30
2021/11/09 05:40:06;;;;;;;1.58;1.02;;;;;;;25.79;31.36;97427.13;5042495;28;20028;-32
2021/11/09 05:42:32;;;;;;;1.25;1.00;;;;;;;25.80;31.36;97428.81;5051039;28;20037;-30
2021/11/09 05:44:58;;;;;;;1.50;1.13;;;;;;;25.79;31.49;97432.38;5045187;28;20245;-31
2021/11/09 05:47:23;;;;;;;1.67;1.17;;;;;;;25.79;31.35;97427.13;5025450;28;20087;-34
2021/11/09 05:49:49;;;;;;;1.48;0.88;;;;;;;25.79;31.57;97427.13;5045402;28;20044;-31
2021/11/09 05:52:14;;;;;;;2.10;1.20;;;;;;;25.78;31.38;97430.66;5037568;28;20081;-30
2021/11/09 05:54:40;;;;;;;1.45;0.95;;;;;;;25.79;31.53;97429.75;5046249;28;20609;-33
2021/11/09 05:57:05;;;;;;;1.55;1.30;;;;;;;25.78;31.35;97425.41;5039931;28;20508;-32
2021/11/09 05:59:30;;;;;;;1.17;1.05;;;;;;;25.78;31.50;97433.28;5038686;28;21789;-31
2021/11/09 06:01:56;;;;;;;1.27;1.17;;;;;;;25.77;31.36;97421.06;5040783;28;20020;-31
2021/11/09 06:04:21;;;;;;;1.23;1.00;;;;;;;25.77;31.45;97423.69;5022314;28;20020;-32
2021/11/09 06:06:47;;;;;;;1.55;0.82;;;;;;;25.78;31.52;97428.03;5029229;28;20093;-32
2021/11/09 06:09:12;;;;;;;1.27;1.00;;;;;;;25.78;31.38;97432.44;5046759;28;20028;-31
2021/11/09 06:11:37;;;;;;;1.60;1.27;;;;;;;25.77;31.49;97434.19;5045087;28;20368;-31
2021/11/09 06:14:03;;;;;;;1.67;1.08;;;;;;;25.76;31.51;97440.38;5047995;28;20040;-33
2021/11/09 06:16:29;;;;;;;2.42;1.17;;;;;;;25.76;31.23;97437.75;5045327;28;20028;-32
2021/11/09 06:18:54;;;;;;;2.95;1.63;;;;;;;25.75;31.02;97441.31;5048087;28;20364;-28
2021/11/09 06:21:20;;;;;;;3.80;1.80;;;;;;;25.76;30.98;97447.38;5028806;28;20048;-31
2021/11/09 06:23:45;;;;;;;3.28;1.67;;;;;;;25.75;30.61;97437.81;5043949;28;20025;-30
2021/11/09 06:26:10;;;;;;;4.43;1.70;;;;;;;25.75;30.56;97445.69;5024594;28;20463;-32
2021/11/09 06:28:38;;;;;;;3.92;1.83;;;;;;;25.72;30.52;97441.44;5041600;28;20369;-31
2021/11/09 06:31:03;;;;;;;3.47;1.90;;;;;;;25.72;30.52;97451.91;5027456;28;20047;-30
2021/11/09 06:33:30;;;;;;;7.63;1.75;;;;;;;25.72;30.39;97467.69;5030120;28;20025;-32
2021/11/09 06:35:56;;;;;;;4.75;1.80;;;;;;;25.70;30.52;97456.38;5029067;28;20106;-32
2021/11/09 06:38:21;;;;;;;3.10;1.60;;;;;;;25.72;30.34;97453.69;5044706;28;20028;-31
2021/11/09 06:40:47;;;;;;;2.75;1.63;;;;;;;25.70;30.50;97464.25;5047256;28;20037;-35
2021/11/09 06:43:12;;;;;;;5.35;2.00;;;;;;;25.70;30.53;97466.88;5039660;28;20167;-29
2021/11/09 06:45:38;;;;;;;4.18;2.28;;;;;;;25.70;30.38;97465.09;5046218;28;20037;-33
2021/11/09 06:48:05;;;;;;;4.18;2.20;;;;;;;25.69;30.20;97467.78;5046882;28;20090;-33
2021/11/09 06:50:30;;;;;;;5.38;2.00;;;;;;;25.68;30.41;97476.59;5048880;28;20056;-30
2021/11/09 06:52:57;;;;;;;2.00;1.20;;;;;;;25.67;30.74;97475.72;5049143;28;20103;-32
2021/11/09 06:55:22;;;;;;;2.25;1.30;;;;;;;25.69;30.75;97478.28;5029280;28;20027;-31
2021/11/09 06:57:48;;;;;;;1.73;1.08;;;;;;;25.68;30.91;97476.59;5043335;28;20036;-31
2021/11/09 07:00:15;;;;;;;2.00;1.40;;;;;;;25.68;31.13;97477.47;5028351;28;20036;-31
2021/11/09 07:02:41;;;;;;;2.08;1.30;;;;;;;25.70;31.17;97474.75;5029464;28;20380;-31
2021/11/09 07:05:06;;;;;;;2.25;1.20;;;;;;;25.72;31.04;97479.94;5043562;28;20086;-32
2021/11/09 07:07:32;;;;;;;3.22;1.35;;;;;;;25.71;31.27;97476.47;5045740;28;20032;-29
2021/11/09 07:09:57;;;;;;;3.30;1.20;;;;;;;25.73;31.19;97485.13;5043347;28;20029;-31
2021/11/09 07:12:23;;;;;;;2.97;1.50;;;;;;;25.73;31.15;97482.50;5058841;28;20121;-32
2021/11/09 07:14:50;;;;;;;2.70;1.23;;;;;;;25.74;31.35;97484.19;5043264;28;20420;-31
2021/11/09 07:17:15;;;;;;;1.67;1.33;;;;;;;25.75;31.33;97499.06;5038215;28;20044;-28
2021/11/09 07:19:46;;;;;;;6.18;1.95;;;;;;;25.75;31.28;97501.69;5060352;28;20028;-32
2021/11/09 07:22:12;;;;;;;7.90;3.05;;;;;;;25.75;31.35;97504.31;5025201;28;20104;-33
2021/11/09 07:24:37;;;;;;;13.43;4.20;;;;;;;25.76;31.13;97503.38;5035054;28;20039;-30
2021/11/09 07:27:03;;;;;;;16.55;5.05;;;;;;;25.77;31.35;97497.22;5037064;28;20028;-30
2021/11/09 07:29:29;;;;;;;14.68;4.65;;;;;;;25.78;31.43;97503.31;5039640;28;20037;-31
2021/11/09 07:31:56;;;;;;;11.32;4.20;;;;;;;25.79;31.33;97505.03;5040623;28;20207;-30
2021/11/09 07:34:21;;;;;;;11.30;4.30;;;;;;;25.80;31.41;97514.59;5039415;28;20056;-30
2021/11/09 07:36:47;;;;;;;12.70;4.47;;;;;;;25.81;31.36;97511.03;5023365;28;20482;-31
2021/11/09 07:39:12;;;;;;;13.00;4.63;;;;;;;25.81;31.40;97509.28;5033881;28;20037;-28
2021/11/09 07:41:39;;;;;;;8.38;4.05;;;;;;;25.84;31.51;97510.94;5033306;28;20384;-33
2021/11/09 07:44:06;;;;;;;10.13;3.70;;;;;;;25.86;31.60;97510.88;5043733;28;20056;-31
2021/11/09 07:46:33;;;;;;;9.82;3.75;;;;;;;25.88;31.60;97509.03;5039239;28;20488;-34
2021/11/09 07:48:59;;;;;;;11.40;3.67;;;;;;;25.89;31.60;97521.25;5042743;28;20063;-31
2021/11/09 07:51:24;;;;;;;11.85;3.58;;;;;;;25.90;31.71;97512.44;5022846;28;20029;-32
2021/11/09 07:53:50;;;;;;;15.07;5.00;;;;;;;25.91;30.29;97517.66;5044748;28;20071;-32
2021/11/09 07:56:19;;;;;;;13.13;4.80;;;;;;;25.89;28.57;97522.09;5048072;28;20481;-31
2021/11/09 07:59:13;;;;;;;10.95;5.40;;;;;;;25.85;27.81;97524.94;5045503;28;20950;-29
2021/11/09 08:01:44;;;;;;;11.30;5.38;;;;;;;25.80;26.86;97523.34;5034075;28;20029;-32
2021/11/09 08:04:14;;;;;;;11.00;5.60;;;;;;;25.75;26.67;97530.56;5042967;28;20031;-31
2021/11/09 08:11:38;;;;;;;11.30;5.07;;;;;;;25.62;26.61;97519.69;5051845;28;20033;-34
2021/11/09 08:14:04;;;;;;;9.27;5.10;;;;;;;25.57;26.55;97521.66;5050925;28;20038;-32
2021/11/09 08:16:29;;;;;;;8.75;4.88;;;;;;;25.55;26.53;97523.47;5033287;28;20028;-33
2021/11/09 08:18:54;;;;;;;6.95;4.55;;;;;;;25.52;26.41;97524.41;5047898;28;20496;-32
2021/11/09 08:21:20;;;;;;;9.50;5.07;;;;;;;25.49;26.08;97524.56;5047941;28;20025;-29
2021/11/09 08:23:49;;;;;;;11.13;4.82;;;;;;;25.46;25.83;97519.44;5045989;28;20036;-32
2021/11/09 08:26:16;;;;;;;12.77;4.35;;;;;;;25.46;25.96;97524.69;5027715;28;20043;-29
2021/11/09 08:28:42;;;;;;;9.98;4.93;;;;;;;25.41;25.80;97522.25;5046189;28;20499;-31
2021/11/09 08:31:09;;;;;;;12.23;5.03;;;;;;;25.41;25.92;97521.38;5027158;28;20028;-31
2021/11/09 08:33:35;;;;;;;9.13;5.03;;;;;;;25.39;26.22;97517.97;5046860;28;20584;-30
2021/11/09 08:36:04;;;;;;;10.57;5.07;;;;;;;25.37;25.98;97520.66;5046536;28;20058;-31
2021/11/09 08:38:31;;;;;;;7.38;4.30;;;;;;;25.36;26.16;97518.09;5046712;28;20039;-31
2021/11/09 08:40:59;;;;;;;11.63;4.57;;;;;;;25.36;26.25;97525.97;5046947;28;20206;-30
2021/11/09 08:43:27;;;;;;;10.65;4.82;;;;;;;25.35;26.50;97513.78;5029454;28;20040;-32
2021/11/09 08:46:02;;;;;;;9.68;5.00;;;;;;;25.34;26.26;97514.66;5043752;28;20016;-32
2021/11/09 08:48:33;;;;;;;7.05;4.80;;;;;;;25.34;26.25;97514.66;5046993;28;20025;-31
2021/11/09 08:50:59;;;;;;;10.32;5.15;;;;;;;25.34;26.17;97519.91;5046511;28;20445;-32
2021/11/09 08:53:31;;;;;;;11.35;4.55;;;;;;;25.33;26.37;97513.84;5044656;28;20036;-30
2021/11/09 08:56:23;;;;;;;15.32;5.10;;;;;;;25.34;26.54;97509.41;5028120;28;20032;-33
2021/11/09 09:04:20;;;;;;;11.80;5.25;;;;;;;25.31;26.23;97506.03;5034504;28;20035;-34
2021/11/09 09:06:47;;;;;;;22.63;5.32;;;;;;;25.33;26.29;97505.09;5034100;28;20498;-31
2021/11/09 09:09:14;;;;;;;13.15;5.10;;;;;;;25.33;26.31;97500.72;5049641;28;20056;-31
2021/11/09 09:11:39;;;;;;;14.30;5.45;;;;;;;25.34;26.17;97501.56;5047335;28;20017;-31
2021/11/09 09:14:05;;;;;;;13.10;5.45;;;;;;;25.34;26.22;97505.03;5047831;28;20051;-29
2021/11/09 09:16:31;;;;;;;20.65;7.68;;;;;;;25.35;25.72;97505.91;5029466;28;20044;-32
2021/11/09 09:18:58;;;;;;;18.83;7.63;;;;;;;25.26;24.70;97507.97;5046819;28;20032;-29
2021/11/09 09:21:38;;;;;;;25.38;7.47;;;;;;;25.14;23.73;97498.78;5028064;28;20039;-33
2021/11/09 09:24:12;;;;;;;17.75;6.50;;;;;;;24.99;23.64;97502.91;5042933;28;20025;-33
2021/11/09 09:26:44;;;;;;;19.50;6.43;;;;;;;24.82;23.33;97500.88;5041332;28;20712;-31
2021/11/09 09:29:52;;;;;;;;;;;;;;;24.68;22.48;97501.41;5050690;28;20032;-30
2021/11/09 09:54:07;;;;;;;16.13;3.80;;;;;;;24.68;26.24;97501.41;5062940;28;20040;-30
2021/11/09 09:56:42;;;;;;;17.88;4.05;;;;;;;24.76;26.53;97506.34;5063235;28;20530;-30
2021/11/09 09:59:08;;;;;;;10.90;3.65;;;;;;;24.82;26.67;97511.34;5062172;28;20025;-31
2021/11/09 10:01:34;;;;;;;13.50;3.80;;;;;;;24.87;26.85;97511.22;5059528;28;20031;-33
2021/11/09 10:03:59;;;;;;;14.10;3.53;;;;;;;24.92;26.91;97509.28;5046574;28;20268;-31
2021/11/09 10:06:44;;;;;;;13.93;4.18;;;;;;;24.98;27.16;97509.03;5067964;28;20027;-30
2021/11/09 10:09:10;;;;;;;17.27;4.60;;;;;;;25.04;27.38;97507.94;5063335;28;20062;-31
2021/11/09 10:11:37;;;;;;;14.88;5.28;;;;;;;25.08;27.30;97508.66;5066661;28;20062;-31
2021/11/09 10:14:04;;;;;;;14.57;5.47;;;;;;;25.13;27.45;97506.75;5073351;28;20106;-35
2021/11/09 10:16:30;;;;;;;19.33;5.35;;;;;;;25.16;27.46;97510.09;5073147;28;20051;-30
2021/11/09 10:18:55;;;;;;;22.05;4.68;;;;;;;25.23;27.34;97509.84;5049515;28;20024;-31
2021/11/09 10:21:21;;;;;;;15.85;4.55;;;;;;;25.25;27.69;97501.00;5068530;28;20024;-33
2021/11/09 10:23:46;;;;;;;14.85;4.78;;;;;;;25.30;27.72;97498.22;5055991;28;20020;-33
2021/11/09 10:26:17;;;;;;;16.40;4.22;;;;;;;25.36;27.78;97502.34;5069795;28;20106;-31
2021/11/09 10:28:43;;;;;;;13.32;4.38;;;;;;;25.39;27.96;97510.94;5067577;28;20062;-32
2021/11/09 10:31:09;;;;;;;12.70;4.55;;;;;;;25.41;27.94;97503.88;5067559;28;20032;-33
2021/11/09 10:33:39;;;;;;;11.85;4.20;;;;;;;25.44;28.02;97506.38;5072328;28;20029;-31
2021/11/09 10:36:19;;;;;;;11.95;3.80;;;;;;;25.47;28.12;97500.13;5070449;28;20359;-31
2021/11/09 10:38:45;;;;;;;12.57;4.47;;;;;;;25.51;28.22;97503.50;5074339;28;20039;-33
2021/11/09 10:41:10;;;;;;;10.40;3.60;;;;;;;25.51;28.17;97493.84;5071555;28;20028;-31
2021/11/09 10:43:36;;;;;;;10.05;3.50;;;;;;;25.55;28.23;97498.06;5071338;28;20066;-30
2021/11/09 10:46:02;;;;;;;7.30;3.72;;;;;;;25.58;28.35;97491.84;5068534;28;20434;-31
2021/11/09 10:48:28;;;;;;;9.82;3.60;;;;;;;25.60;28.53;97494.44;5067122;28;20040;-33
2021/11/09 10:50:56;;;;;;;9.15;3.25;;;;;;;25.62;28.58;97495.22;5051869;28;20482;-34
2021/11/09 11:04:35;;;;;;;8.63;3.40;;;;;;;25.73;28.75;97485.13;5066996;28;20051;-29
2021/11/09 11:07:04;;;;;;;6.57;3.15;;;;;;;25.74;28.82;97484.19;5061792;28;20143;-31
2021/11/09 11:09:29;;;;;;;10.65;3.50;;;;;;;25.75;28.81;97478.06;5064373;28;20027;-31
2021/11/09 11:11:58;;;;;;;18.48;3.90;;;;;;;25.76;28.93;97484.13;5062805;28;20332;-34
2021/11/09 11:14:29;;;;;;;20.75;4.00;;;;;;;25.77;28.68;97481.47;5045618;28;20027;-33
2021/11/09 11:17:11;;;;;;;15.10;4.68;;;;;;;25.73;27.77;97477.25;5062559;28;21747;-30
2021/11/09 11:19:55;;;;;;;10.80;4.90;;;;;;;25.72;27.09;97467.69;5063502;28;20036;-32
2021/11/09 11:22:22;;;;;;;9.43;4.32;;;;;;;25.68;26.46;97471.34;5066850;28;20023;-31
2021/11/09 11:24:48;;;;;;;11.02;5.10;;;;;;;25.65;26.28;97471.47;5064845;28;20063;-30
2021/11/09 11:27:13;;;;;;;10.13;5.00;;;;;;;25.61;25.93;97460.25;5064015;28;20583;-30
2021/11/09 11:29:39;;;;;;;17.17;4.85;;;;;;;25.57;25.61;97464.78;5065390;28;20031;-29
2021/11/09 11:32:09;;;;;;;12.48;4.18;;;;;;;25.53;25.77;97454.44;5063690;28;20032;-27
2021/11/09 11:34:35;;;;;;;16.67;4.80;;;;;;;25.50;25.71;97450.16;5057775;28;20032;-31
2021/11/09 11:37:00;;;;;;;13.32;3.72;;;;;;;25.50;26.54;97447.53;5061124;28;20043;-30
2021/11/09 11:39:29;;;;;;;14.10;4.53;;;;;;;25.49;27.18;97440.59;5061449;28;20065;-28
2021/11/09 11:41:56;;;;;;;11.95;3.88;;;;;;;25.50;27.78;97442.28;5070166;28;20030;-30
2021/11/09 11:44:23;;;;;;;7.72;3.50;;;;;;;25.50;27.80;97437.03;5065650;28;20116;-28
2021/11/09 11:46:52;;;;;;;8.85;3.20;;;;;;;25.52;27.89;97435.19;5073122;28;20048;-29
2021/11/09 11:49:20;;;;;;;10.30;3.80;;;;;;;25.55;28.08;97426.38;5070545;28;20016;-30
2021/11/09 11:51:45;;;;;;;26.25;5.22;;;;;;;25.57;28.26;97432.41;5053335;28;20032;-30
2021/11/09 11:54:11;;;;;;;13.50;4.45;;;;;;;25.60;28.22;97423.56;5074215;28;20364;-31
2021/11/09 11:56:41;;;;;;;17.63;4.07;;;;;;;25.63;28.35;97420.81;5075396;28;20020;-31
2021/11/09 11:59:07;;;;;;;22.85;4.88;;;;;;;25.65;28.37;97416.34;5071738;28;20725;-31
2021/11/09 12:01:43;;;;;;;21.13;4.50;;;;;;;25.69;28.47;97417.91;5070948;28;20028;-30
2021/11/09 12:04:09;;;;;;;18.17;3.72;;;;;;;25.73;28.63;97426.53;5071856;28;20032;-31
2021/11/09 12:06:49;;;;;;;14.88;3.90;;;;;;;25.74;28.46;97421.19;5073432;28;20032;-31
2021/11/09 12:09:47;;;;;;;14.80;4.20;;;;;;;25.78;28.53;97420.16;5078771;28;20036;-30
2021/11/09 12:12:18;;;;;;;16.40;4.47;;;;;;;25.80;28.75;97427.97;5068895;28;20039;-30
2021/11/09 12:14:55;;;;;;;10.70;3.55;;;;;;;25.81;28.65;97430.53;5071848;28;20035;-30
2021/11/09 12:17:41;;;;;;;11.93;3.42;;;;;;;25.85;28.48;97433.03;5071680;28;20036;-30
2021/11/09 12:20:15;;;;;;;7.68;3.22;;;;;;;25.87;28.61;97425.91;5071556;28;20134;-32
2021/11/09 12:22:52;;;;;;;7.65;3.03;;;;;;;25.89;28.87;97416.22;5071583;28;20033;-29
2021/11/09 12:25:32;;;;;;;11.73;3.42;;;;;;;25.91;28.91;97414.38;5059391;28;20016;-30
2021/11/09 12:28:03;;;;;;;11.18;3.33;;;;;;;25.91;28.97;97403.88;5072349;28;20138;-30
2021/11/09 12:30:35;;;;;;;9.52;3.53;;;;;;;25.94;29.00;97403.75;5071869;28;20054;-32
2021/11/09 12:33:11;;;;;;;9.50;3.35;;;;;;;25.95;29.09;97405.44;5072369;28;20035;-30
2021/11/09 12:35:38;;;;;;;10.40;3.05;;;;;;;25.96;28.89;97407.13;5070835;28;20503;-30
2021/11/09 12:38:09;;;;;;;7.40;3.10;;;;;;;25.98;29.08;97414.94;5069698;28;20048;-30
2021/11/09 12:40:43;;;;;;;8.75;3.03;;;;;;;25.98;29.15;97405.31;5072624;28;20027;-32
2021/11/09 12:43:19;;;;;;;7.72;2.78;;;;;;;25.99;29.09;97412.25;5074544;28;20028;-32
2021/11/09 12:46:06;;;;;;;6.88;2.80;;;;;;;26.01;29.20;97409.56;5067642;28;20116;-28
2021/11/09 12:48:34;;;;;;;6.43;2.85;;;;;;;26.02;29.16;97400.75;5074749;28;20480;-31
2021/11/09 12:51:03;;;;;;;11.48;3.33;;;;;;;26.02;29.30;97401.63;5070083;28;20028;-28
2021/11/09 12:53:29;;;;;;;7.57;2.95;;;;;;;26.03;29.24;97403.34;5071482;28;20020;-31
2021/11/09 12:56:09;;;;;;;6.20;2.72;;;;;;;26.04;29.29;97397.16;5054100;28;20042;-32
2021/11/09 12:59:11;;;;;;;8.90;2.47;;;;;;;26.06;29.48;97394.47;5072231;28;20127;-31
2021/11/09 13:04:23;;;;;;;4.85;2.45;;;;;;;26.08;29.53;97379.47;5071258;28;19969;-30
2021/11/09 13:09:38;;;;;;;8.05;2.63;;;;;;;26.07;29.32;97383.88;5070887;28;20511;-30
2021/11/09 13:12:10;;;;;;;6.93;2.90;;;;;;;26.09;29.46;97376.78;5066780;28;20492;-32
2021/11/09 13:14:35;;;;;;;;;;;;;;;26.12;29.46;97382.84;5071330;28;20028;-31
2021/11/09 13:17:12;;;;;;;3.92;2.28;;;;;;;26.12;29.54;97377.56;5071686;28;20792;-31
2021/11/09 13:19:38;;;;;;;6.30;2.72;;;;;;;26.11;29.39;97376.72;5057854;28;20070;-33
2021/11/09 13:22:15;;;;;;;6.72;3.00;;;;;;;26.12;29.55;97380.19;5067473;28;20028;-32
2021/11/09 13:24:55;;;;;;;6.45;2.50;;;;;;;26.13;29.64;97376.66;5069500;28;20029;-28
2021/11/09 13:27:22;;;;;;;5.60;2.50;;;;;;;26.14;29.38;97373.09;5068807;28;20035;-33
2021/11/09 13:29:49;;;;;;;5.45;2.47;;;;;;;26.16;29.55;97371.25;5071378;28;20072;-31
2021/11/09 13:32:15;;;;;;;5.30;2.20;;;;;;;26.16;29.65;97373.91;5069398;28;20028;-34
2021/11/09 13:34:40;;;;;;;5.60;2.50;;;;;;;26.17;29.53;97375.59;5068944;28;20027;-33
2021/11/09 13:37:06;;;;;;;5.68;2.50;;;;;;;26.17;29.52;97372.97;5071456;28;20040;-33
2021/11/09 13:39:32;;;;;;;5.45;2.60;;;;;;;26.19;29.53;97376.34;5073594;28;20055;-34
2021/11/09 13:41:57;;;;;;;4.43;1.90;;;;;;;26.19;29.60;97371.09;5068964;28;20492;-30
2021/11/09 13:44:23;;;;;;;4.57;2.35;;;;;;;26.21;29.61;97379.78;5071324;28;20043;-34
2021/11/09 13:46:48;;;;;;;4.00;1.95;;;;;;;26.21;29.63;97372.72;5054503;28;20042;-35
2021/11/09 13:49:16;;;;;;;6.28;2.65;;;;;;;26.23;29.59;97377.94;5072306;28;20035;-31
2021/11/09 13:51:49;;;;;;;4.60;2.22;;;;;;;26.23;29.71;97362.16;5050192;28;20020;-33
2021/11/09 13:54:24;;;;;;;4.60;1.92;;;;;;;26.23;29.72;97354.28;5069156;28;20062;-28
2021/11/09 13:56:52;;;;;;;5.15;1.98;;;;;;;26.25;29.72;97349.81;5069373;28;20032;-33
2021/11/09 13:59:26;;;;;;;5.88;2.08;;;;;;;26.25;29.67;97355.06;5072222;28;20119;-31
2021/11/09 14:02:18;;;;;;;4.22;1.83;;;;;;;26.24;29.80;97353.38;5069241;28;20545;-30
2021/11/09 14:18:16;;;;;;;3.92;2.00;;;;;;;26.27;29.79;97345.38;5072400;28;20027;-27